createdAt,value
2023-01-11T00:00:01.957Z,623.217
2023-01-11T00:05:01.928Z,640.043
2023-01-11T00:10:01.962Z,1344.123
2023-01-11T00:15:01.943Z,2796.232
2023-01-11T00:20:01.935Z,2855.667
2023-01-11T00:25:01.901Z,2947.809
2023-01-11T00:30:02.051Z,2938.445
2023-01-11T00:35:02.051Z,3332.136
2023-01-11T00:40:02.076Z,607.499
2023-01-11T00:45:02.163Z,603.337
2023-01-11T00:50:01.946Z,620.0600000000001
2023-01-11T00:55:01.916Z,600.432
2023-01-11T01:00:01.973Z,613.436
2023-01-11T01:05:01.924Z,2312.071
2023-01-11T01:10:01.905Z,6107.3060000000005
2023-01-11T01:15:01.984Z,7304.171
2023-01-11T01:20:02.018Z,7534.727
2023-01-11T01:25:02.072Z,7403.487
2023-01-11T01:30:01.964Z,7432.2970000000005
2023-01-11T01:35:01.949Z,5536.421
2023-01-11T01:40:01.978Z,5203.650000000001
2023-01-11T01:45:02.008Z,5195.325
2023-01-11T01:50:02.103Z,5236.494
2023-01-11T01:55:02.118Z,5318.216
2023-01-11T02:00:02.198Z,5336.434
2023-01-11T02:05:02.038Z,5285.254
2023-01-11T02:10:01.989Z,7342.853
2023-01-11T02:15:02.075Z,7394.9980000000005
2023-01-11T02:20:02.071Z,7453.897
2023-01-11T02:25:01.988Z,7312.353
2023-01-11T02:30:02.078Z,5236.104
2023-01-11T02:35:02.008Z,5260.677
2023-01-11T02:40:02.029Z,5353.555
2023-01-11T02:45:02.094Z,5310.321
2023-01-11T02:50:02.126Z,5151.521
2023-01-11T02:55:02.189Z,4610.18
2023-01-11T03:00:02.194Z,4539.755
2023-01-11T03:05:02.018Z,5966.496
2023-01-11T03:10:02.056Z,5626.6990000000005
2023-01-11T03:15:02.208Z,2531.702
2023-01-11T03:20:02.071Z,2894.68
2023-01-11T03:25:02.093Z,3115.087
2023-01-11T03:30:02.053Z,2604.609
2023-01-11T03:35:02.068Z,675.227
2023-01-11T03:40:02.084Z,604.67
2023-01-11T03:45:02.139Z,548.452
2023-01-11T03:50:02.153Z,613.842
2023-01-11T03:55:02.272Z,591.221
2023-01-11T04:00:02.291Z,1431.597
2023-01-11T04:05:02.355Z,2827.131
2023-01-11T04:10:02.089Z,2862.581
2023-01-11T04:15:02.144Z,2896.357
2023-01-11T04:20:02.107Z,1388.121
2023-01-11T04:25:02.110Z,621.561
2023-01-11T04:30:02.124Z,593.563
2023-01-11T04:35:02.150Z,608.164
2023-01-11T04:40:02.128Z,599.599
2023-01-11T04:45:02.110Z,596.256
2023-01-11T04:50:02.218Z,656.471
2023-01-11T04:55:02.358Z,2305.21
2023-01-11T05:00:02.291Z,2460.116
2023-01-11T05:05:02.435Z,2447.597
2023-01-11T05:10:02.157Z,2395.6150000000002
2023-01-11T05:15:02.183Z,2022.9950000000001
2023-01-11T05:20:02.151Z,380.177
2023-01-11T05:25:02.180Z,204.518
2023-01-11T05:30:02.325Z,203.63
2023-01-11T05:35:02.178Z,271.621
2023-01-11T05:40:02.196Z,310.974
2023-01-11T05:45:02.163Z,287.003
2023-01-11T05:50:02.186Z,806.567
2023-01-11T05:55:02.310Z,2346.291
2023-01-11T06:00:02.307Z,2353.09
2023-01-11T06:05:02.326Z,2443.033
2023-01-11T06:10:02.344Z,2844.314
2023-01-11T06:15:02.255Z,4108.996
2023-01-11T06:20:02.335Z,2039.551
2023-01-11T06:25:02.377Z,1094.1770000000001
2023-01-11T06:30:02.248Z,2085.002
2023-01-11T06:35:02.275Z,1648.165
2023-01-11T06:40:02.229Z,1349.489
2023-01-11T06:45:02.212Z,1163.887
2023-01-11T06:50:02.281Z,2228.077
2023-01-11T06:55:02.210Z,3359.998
2023-01-11T07:00:02.332Z,3295.358
2023-01-11T07:05:02.311Z,3239.981
2023-01-11T07:10:02.270Z,2112.281
2023-01-11T07:15:02.388Z,1165.721
2023-01-11T07:20:02.421Z,1234.402
2023-01-11T07:25:02.532Z,1120.483
2023-01-11T07:30:02.233Z,1151.303
2023-01-11T07:35:02.239Z,1136.148
2023-01-11T07:40:02.242Z,1132.3310000000001
2023-01-11T07:45:02.260Z,1019.615
2023-01-11T07:50:02.262Z,2479.272
2023-01-11T07:55:02.385Z,2769.5460000000003
2023-01-11T08:00:02.291Z,2756.022
2023-01-11T08:05:03.229Z,2777.442
2023-01-11T08:10:02.322Z,3064.582
2023-01-11T08:15:02.476Z,997.711
2023-01-11T08:20:02.492Z,433.277
2023-01-11T08:25:02.529Z,443.512
2023-01-11T08:30:02.369Z,439.894
2023-01-11T08:35:02.610Z,490.842
2023-01-11T08:40:02.333Z,562.519
2023-01-11T08:45:02.419Z,554.062
2023-01-11T08:50:02.373Z,534.237
2023-01-11T08:55:02.332Z,1123.094
2023-01-11T09:00:02.329Z,2595.698
2023-01-11T09:05:02.330Z,2612.234
2023-01-11T09:10:02.445Z,2642.718
2023-01-11T09:15:02.579Z,1301.41
2023-01-11T09:20:02.602Z,427.997
2023-01-11T09:25:02.381Z,522.607
2023-01-11T09:30:02.390Z,491.348
2023-01-11T09:35:02.388Z,420.92400000000004
2023-01-11T09:40:02.386Z,393.063
2023-01-11T09:45:02.412Z,417.67
2023-01-11T09:50:02.374Z,404.747
2023-01-11T09:55:02.500Z,1176.161
2023-01-11T10:00:02.424Z,2610.896
2023-01-11T10:05:02.512Z,2543.82
2023-01-11T10:18:24.663Z,2987.395
2023-01-11T10:20:02.755Z,2076.774
2023-01-11T10:25:02.398Z,426.096
2023-01-11T10:30:02.475Z,412.42900000000003
2023-01-11T10:35:02.488Z,410.588
2023-01-11T10:40:02.416Z,408.862
2023-01-11T10:45:02.448Z,408.192
2023-01-11T10:50:04.264Z,397.08
2023-01-11T10:55:02.455Z,495.184
2023-01-11T11:00:02.495Z,507.81600000000003
2023-01-11T11:05:02.475Z,502.42400000000004
2023-01-11T11:10:02.485Z,2458.547
2023-01-11T11:15:02.532Z,2381.2110000000002
2023-01-11T11:20:02.647Z,2411.893
2023-01-11T11:25:02.668Z,964.49
2023-01-11T11:30:02.543Z,187.91
2023-01-11T11:35:02.490Z,200.578
2023-01-11T11:40:02.509Z,288.596
2023-01-11T11:45:02.508Z,314.333
2023-01-11T11:50:02.484Z,310.521
2023-01-11T11:55:02.537Z,273.665
2023-01-11T12:00:02.592Z,222.512
2023-01-11T12:05:02.571Z,214.198
2023-01-11T12:10:02.524Z,1950.421
2023-01-11T12:15:02.511Z,2378.11
2023-01-11T12:20:02.581Z,2416.08
2023-01-11T12:25:02.663Z,2767.765
2023-01-11T12:30:02.647Z,1740.6290000000001
2023-01-11T12:35:02.669Z,310.685
2023-01-11T12:40:02.514Z,291.765
2023-01-11T12:45:02.636Z,197.809
2023-01-11T12:50:02.524Z,174.685
2023-01-11T12:55:02.640Z,174.578
2023-01-11T13:00:02.623Z,175.597
2023-01-11T13:10:38.177Z,174.923
2023-01-11T13:15:02.585Z,279.059
2023-01-11T13:20:02.675Z,1233.353
2023-01-11T13:25:02.605Z,2471.357
2023-01-11T13:30:02.668Z,2308.679
2023-01-11T13:35:02.756Z,2435.522
2023-01-11T13:40:02.899Z,418.17400000000004
2023-01-11T13:45:02.599Z,199.547
2023-01-11T13:50:02.577Z,202.423
2023-01-11T13:55:03.192Z,209.108
2023-01-11T14:00:02.619Z,255.424
2023-01-11T14:05:02.603Z,309.133
2023-01-11T14:10:02.622Z,288.168
2023-01-11T14:15:02.657Z,270.791
2023-01-11T14:20:02.656Z,1620.928
2023-01-11T14:25:02.598Z,2403.436
2023-01-11T14:30:02.655Z,2420.8650000000002
2023-01-11T14:35:02.667Z,2546.881
2023-01-11T14:40:02.905Z,2577.091
2023-01-11T14:45:02.766Z,195.994
2023-01-11T14:50:02.776Z,285.428
2023-01-11T14:55:02.612Z,286.869
2023-01-11T15:00:02.642Z,282.873
2023-01-11T15:05:02.700Z,278.085
2023-01-11T15:10:02.686Z,289.499
2023-01-11T15:15:02.831Z,293.493
2023-01-11T15:20:02.720Z,312.154
2023-01-11T15:25:02.711Z,797.519
2023-01-11T15:30:02.692Z,2537.284
2023-01-11T15:35:02.690Z,2659.525
2023-01-11T15:40:02.732Z,2742.973
2023-01-11T15:45:02.711Z,2680.195
2023-01-11T15:50:02.785Z,1451.95
2023-01-11T15:55:02.849Z,862.067
2023-01-11T16:00:03.134Z,768.2710000000001
2023-01-11T16:05:02.925Z,861.926
2023-01-11T16:10:02.807Z,417.42900000000003
2023-01-11T16:15:02.730Z,393.85200000000003
2023-01-11T16:20:02.832Z,440.491
2023-01-11T16:25:02.792Z,1138.236
2023-01-11T16:30:02.924Z,2497.741
2023-01-11T16:35:02.757Z,2638.326
2023-01-11T16:40:02.754Z,2570.89
2023-01-11T16:45:02.809Z,2597.119
2023-01-11T16:50:02.754Z,3009.339
2023-01-11T16:55:02.792Z,949.532
2023-01-11T17:00:02.832Z,299.848
2023-01-11T17:05:02.974Z,329.497
2023-01-11T17:10:03.011Z,430.262
2023-01-11T17:15:03.006Z,423.73900000000003
2023-01-11T17:20:02.744Z,422.593
2023-01-11T17:25:02.767Z,323.838
2023-01-11T17:30:02.808Z,321.232
2023-01-11T17:35:02.814Z,1467.757
2023-01-11T17:40:02.850Z,2515.239
2023-01-11T17:45:02.803Z,2551.442
2023-01-11T17:50:02.771Z,2585.136
2023-01-11T17:55:02.830Z,1834.627
2023-01-11T18:00:02.822Z,488.829
2023-01-11T18:05:02.829Z,480.935
2023-01-11T18:10:03.843Z,378.106
2023-01-11T18:15:02.993Z,349.529
2023-01-11T18:20:02.961Z,354.546
2023-01-11T18:25:03.055Z,369.319
2023-01-11T18:30:02.823Z,1156.48
2023-01-11T18:35:02.860Z,2806.76
2023-01-11T18:40:02.876Z,2316.426
2023-01-11T18:45:02.872Z,2730.491
2023-01-11T18:50:02.859Z,2687.984
2023-01-11T18:55:02.839Z,2810.583
2023-01-11T19:00:02.875Z,2517.357
2023-01-11T19:05:02.823Z,403.347
2023-01-11T19:10:02.932Z,409.04200000000003
2023-01-11T19:15:01.514Z,386.18
2023-01-11T19:20:01.523Z,382.37
2023-01-11T19:25:01.556Z,467.81
2023-01-11T19:30:01.577Z,536.719
2023-01-11T19:35:01.522Z,631.918
2023-01-11T19:40:01.573Z,2537.483
2023-01-11T19:45:01.573Z,529.118
2023-01-11T19:50:01.501Z,345.051
2023-01-11T19:55:01.637Z,421.354
2023-01-11T20:00:01.546Z,2449.449
2023-01-11T20:05:01.684Z,2449.458
2023-01-11T20:10:01.751Z,2459.261
2023-01-11T20:15:01.734Z,3262.15
2023-01-11T20:20:01.813Z,2638.04
2023-01-11T20:25:01.585Z,2111.911
2023-01-11T20:30:01.563Z,2516.9610000000002
2023-01-11T20:35:01.606Z,316.96500000000003
2023-01-11T20:40:01.586Z,319.173
2023-01-11T20:45:01.734Z,317.918
2023-01-11T20:50:01.593Z,307.35200000000003
2023-01-11T20:55:01.637Z,648.486
2023-01-11T21:00:01.700Z,514.404
2023-01-11T21:05:01.688Z,406.043
2023-01-11T21:10:01.680Z,1274.722
2023-01-11T21:15:01.877Z,2500.706
2023-01-11T21:20:01.819Z,2479.951
2023-01-11T21:25:01.842Z,2508.983
2023-01-11T21:30:01.651Z,2575.362
2023-01-11T21:35:01.624Z,2957.483
2023-01-11T21:40:01.610Z,572.714
2023-01-11T21:45:01.656Z,353.544
2023-01-11T21:50:01.655Z,408.789
2023-01-11T21:55:01.780Z,400.438
2023-01-11T22:00:01.669Z,322.435
2023-01-11T22:05:01.677Z,289.01300000000003
2023-01-11T22:10:05.234Z,292.848
2023-01-11T22:15:01.834Z,1202.9370000000001
2023-01-11T22:20:01.885Z,2474.0480000000002
2023-01-11T22:25:01.801Z,2459.101
2023-01-11T22:30:01.672Z,2504.804
2023-01-11T22:35:01.666Z,2104.569
2023-01-11T22:40:02.128Z,2370.75
2023-01-11T22:45:01.759Z,283.008
2023-01-11T22:50:01.703Z,224.048
2023-01-11T22:55:01.715Z,221.572
2023-01-11T23:00:01.706Z,212.576
2023-01-11T23:05:01.951Z,210.45000000000002
2023-01-11T23:10:01.740Z,185.433
2023-01-11T23:15:03.825Z,1636.49
2023-01-11T23:20:01.914Z,2487.063
2023-01-11T23:25:01.855Z,2494.591
2023-01-11T23:30:01.915Z,2497.256
2023-01-11T23:35:01.714Z,2445.723
2023-01-11T23:40:01.722Z,2858.7200000000003
2023-01-11T23:45:01.761Z,367.01300000000003
2023-01-11T23:50:01.723Z,203.85
2023-01-11T23:55:01.783Z,202.483
